ADDS METAR Data INFO
IDs: Format: Raw Decoded Include TAF

Data at: 0256 UTC 21 Jan 2018

KCID 210252Z 15004KT 5SM BR OVC028 03/02 A2992 RMK AO2 SLP139 T00280017 50003
KCID 210152Z 16003KT 4SM BR BKN025 01/00 A2993 RMK AO2 SLP143 T00110000
KCID 210149Z 16003KT 4SM BR BKN025 01/00 A2993 RMK AO2
KCID 210052Z 12005KT 5SM BR SCT019 01/00 A2991 RMK AO2 SLP138 T00110000
KCID 210044Z 11004KT 5SM BR BKN019 02/01 A2992 RMK AO2 T00170006
KCID 202352Z AUTO 12003KT 7SM CLR 02/01 A2991 RMK AO2 SLP137 T00220006 10094 20022 51014
KCID 202252Z 21005KT 7SM CLR 04/02 A2991 RMK AO2 SLP135 T00440017
KCID 202152Z 20008KT 8SM CLR 08/03 A2988 RMK AO2 SLP124 T00780028
KCID 202052Z 21005KT 10SM CLR 09/02 A2987 RMK AO2 SLP120 T00940017 55004
KCID 201952Z 22007KT 10SM CLR 09/01 A2987 RMK AO2 SLP119 T00890006
KCID 201852Z 20007KT 10SM CLR 08/00 A2986 RMK AO2 SLP118 T00780000
KCID 201752Z 20008KT 10SM CLR 07/M01 A2988 RMK AO2 SLP124 T00671006 10067 21028 50004
KCID 201652Z 25004KT 10SM CLR 06/M01 A2990 RMK AO2 SLP130 T00561011
KCID 201552Z 23005KT 10SM CLR 04/M01 A2989 RMK AO2 SLP128 T00391011
KCID 201452Z 17003KT 9SM CLR 01/M02 A2987 RMK AO2 SLP122 T00061022 52015
KCID 201352Z 00000KT 8SM CLR M01/M03 A2985 RMK AO2 SLP117 T10061033
KCID 201252Z 00000KT 10SM CLR M02/M04 A2984 RMK AO2 SLP112 T10171044
KCID 201152Z 21004KT 10SM CLR M01/M04 A2982 RMK AO2 SLP107 T10111039 10022 21017 51010
KCID 201052Z 21005KT 10SM CLR 00/M03 A2982 RMK AO2 SLP105 T00001033
KCID 200952Z AUTO 21005KT 10SM CLR 00/M03 A2980 RMK AO2 SLP099 T00001028
KCID 200852Z AUTO 22007KT 10SM CLR 01/M03 A2979 RMK AO2 SLP095 T00111028 53012
KCID 200752Z AUTO 22008KT 10SM CLR 01/M02 A2978 RMK AO2 SLP090 T00111022
KCID 200652Z AUTO 22010KT 10SM CLR 02/M02 A2976 RMK AO2 SLP084 T00171022
KCID 200552Z AUTO 22011KT 10SM CLR 02/M02 A2976 RMK AO2 SLP082 T00221022 10056 20022 400721039 53009
KCID 200452Z 22010KT 10SM CLR 03/M02 A2975 RMK AO2 SLP079 T00331017
KCID 200352Z 22011KT 10SM CLR 03/M02 A2973 RMK AO2 SLP076 T00331017
KCID 200252Z 22008KT 10SM CLR 04/M02 A2973 RMK AO2 SLP074 T00391022 53022
KCID 200152Z 23012KT 10SM CLR 04/M02 A2971 RMK AO2 SLP068 T00441022
KCID 200052Z 20010KT 10SM CLR 05/M02 A2968 RMK AO2 SLP059 T00501022
KCID 192352Z 20013KT 10SM CLR 04/M02 A2966 RMK AO2 SLP053 T00441017 10072 20044 56004
KCID 192252Z 19016G22KT 10SM CLR 05/M02 A2966 RMK AO2 SLP053 T00501017
KCID 192152Z 19013KT 10SM CLR 06/M02 A2967 RMK AO2 SLP056 T00561017
KCID 192052Z 19015G20KT 10SM CLR 07/M02 A2968 RMK AO2 SLP056 T00671017 58020
KCID 191952Z 20014KT 10SM CLR 07/M02 A2969 RMK AO2 SLP061 T00671022
KCID 191852Z 20011KT 10SM CLR 07/M02 A2973 RMK AO2 SLP074 T00671022
KCID 191752Z 19015KT 10SM CLR 04/M03 A2974 RMK AO2 SLP077 T00441033 10050 21039 58022
KCID 191652Z 21013KT 10SM CLR 03/M04 A2977 RMK AO2 SLP089 T00281039
KCID 191552Z 21013KT 10SM CLR 01/M05 A2980 RMK AO2 SLP100 T00111050